createdAt,value
2018-08-09T00:01:48.175Z,21.80
2018-08-09T00:04:16.880Z,21.80
2018-08-09T00:06:45.462Z,21.80
2018-08-09T00:09:14.156Z,21.70
2018-08-09T00:11:42.743Z,21.60
2018-08-09T00:14:12.077Z,21.60
2018-08-09T00:16:41.024Z,21.60
2018-08-09T00:19:09.657Z,21.60
2018-08-09T00:21:38.268Z,21.60
2018-08-09T00:24:06.956Z,21.60
2018-08-09T00:26:35.486Z,21.60
2018-08-09T00:29:04.113Z,21.60
2018-08-09T00:31:32.779Z,21.50
2018-08-09T00:34:01.265Z,21.50
2018-08-09T00:36:29.633Z,21.50
2018-08-09T00:38:58.691Z,21.40
2018-08-09T00:41:27.087Z,21.30
2018-08-09T00:43:55.747Z,21.30
2018-08-09T00:46:24.463Z,21.30
2018-08-09T00:48:52.971Z,21.30
2018-08-09T00:51:21.508Z,21.30
2018-08-09T00:53:50.154Z,21.30
2018-08-09T00:56:18.527Z,21.30
2018-08-09T00:58:46.840Z,21.20
2018-08-09T01:01:15.211Z,21.20
2018-08-09T01:03:43.547Z,21.20
2018-08-09T01:06:11.888Z,21.20
2018-08-09T01:08:44.436Z,21.20
2018-08-09T01:11:12.783Z,21.10
2018-08-09T01:13:41.114Z,21.00
2018-08-09T01:16:09.480Z,21.00
2018-08-09T01:18:37.830Z,21.00
2018-08-09T01:21:06.195Z,20.90
2018-08-09T01:23:34.537Z,20.80
2018-08-09T01:26:02.879Z,20.80
2018-08-09T01:28:31.224Z,20.80
2018-08-09T01:31:00.627Z,20.80
2018-08-09T01:33:29.103Z,20.80
2018-08-09T01:35:57.443Z,20.80
2018-08-09T01:38:25.803Z,20.70
2018-08-09T01:40:54.204Z,20.70
2018-08-09T01:43:33.863Z,20.70
2018-08-09T01:46:02.215Z,20.70
2018-08-09T01:48:30.560Z,20.60
2018-08-09T01:50:58.909Z,20.60
2018-08-09T01:53:27.228Z,20.60
2018-08-09T01:55:55.568Z,20.50
2018-08-09T01:58:23.895Z,20.50
2018-08-09T02:00:52.264Z,20.40
2018-08-09T02:03:20.620Z,20.40
2018-08-09T02:05:48.979Z,20.40
2018-08-09T02:08:17.301Z,20.50
2018-08-09T02:10:45.641Z,20.50
2018-08-09T02:13:13.980Z,20.50
2018-08-09T02:15:42.358Z,20.50
2018-08-09T02:18:10.671Z,20.50
2018-08-09T02:20:39.039Z,20.60
2018-08-09T02:23:07.379Z,20.60
2018-08-09T02:25:35.716Z,20.60
2018-08-09T02:28:04.096Z,20.60
2018-08-09T02:30:32.440Z,20.50
2018-08-09T02:33:00.767Z,20.50
2018-08-09T02:35:29.099Z,20.50
2018-08-09T02:37:57.466Z,20.50
2018-08-09T02:40:25.795Z,20.40
2018-08-09T02:42:54.139Z,20.40
2018-08-09T02:45:22.485Z,20.40
2018-08-09T02:47:50.851Z,20.40
2018-08-09T02:50:19.172Z,20.40
2018-08-09T02:52:47.527Z,20.40
2018-08-09T02:55:15.868Z,20.30
2018-08-09T02:57:44.280Z,20.30
2018-08-09T03:00:12.599Z,20.40
2018-08-09T03:02:40.967Z,20.40
2018-08-09T03:05:09.296Z,20.30
2018-08-09T03:07:37.639Z,20.30
2018-08-09T03:10:05.963Z,20.30
2018-08-09T03:12:34.323Z,20.30
2018-08-09T03:15:02.739Z,20.30
2018-08-09T03:17:31.094Z,20.30
2018-08-09T03:19:59.418Z,20.30
2018-08-09T03:22:27.781Z,20.20
2018-08-09T03:24:56.153Z,20.20
2018-08-09T03:27:24.507Z,20.20
2018-08-09T03:29:52.823Z,20.20
2018-08-09T03:32:21.211Z,20.10
2018-08-09T03:34:49.548Z,20.10
2018-08-09T03:37:17.903Z,20.10
2018-08-09T03:39:46.240Z,20.10
2018-08-09T03:42:14.633Z,20.00
2018-08-09T03:44:42.983Z,20.00
2018-08-09T03:47:11.346Z,20.00
2018-08-09T03:49:39.662Z,20.00
2018-08-09T03:52:08.053Z,20.00
2018-08-09T03:54:36.371Z,20.00
2018-08-09T03:57:04.724Z,20.00
2018-08-09T03:59:33.098Z,20.00
2018-08-09T04:02:01.450Z,19.90
2018-08-09T04:04:29.774Z,19.90
2018-08-09T04:06:58.123Z,19.90
2018-08-09T04:09:26.473Z,19.90
2018-08-09T04:11:54.840Z,19.90
2018-08-09T04:14:23.175Z,19.90
2018-08-09T04:16:51.528Z,19.90
2018-08-09T04:19:19.851Z,19.90
2018-08-09T04:21:48.203Z,19.90
2018-08-09T04:24:16.556Z,19.90
2018-08-09T04:26:44.904Z,19.90
2018-08-09T04:29:13.227Z,19.80
2018-08-09T04:31:41.548Z,19.80
2018-08-09T04:34:09.940Z,19.80
2018-08-09T04:36:38.268Z,19.80
2018-08-09T04:39:08.395Z,19.80
2018-08-09T04:41:36.727Z,19.80
2018-08-09T04:44:05.103Z,19.80
2018-08-09T04:46:33.423Z,19.80
2018-08-09T04:49:01.779Z,19.80
2018-08-09T04:51:30.179Z,19.80
2018-08-09T04:53:58.552Z,19.80
2018-08-09T04:56:26.863Z,19.80
2018-08-09T04:58:55.207Z,19.80
2018-08-09T05:01:23.525Z,19.80
2018-08-09T05:03:51.871Z,19.80
2018-08-09T05:06:20.212Z,19.90
2018-08-09T05:08:48.564Z,19.90
2018-08-09T05:11:16.897Z,19.90
2018-08-09T05:13:45.260Z,20.00
2018-08-09T05:16:13.582Z,20.00
2018-08-09T05:18:41.948Z,20.10
2018-08-09T05:21:10.362Z,20.10
2018-08-09T05:23:38.755Z,20.10
2018-08-09T05:26:07.520Z,20.10
2018-08-09T05:28:35.950Z,20.10
2018-08-09T05:31:04.284Z,20.10
2018-08-09T05:33:32.659Z,20.10
2018-08-09T05:36:00.988Z,20.20
2018-08-09T05:38:29.361Z,20.20
2018-08-09T05:40:57.676Z,20.30
2018-08-09T05:43:26.030Z,20.30
2018-08-09T05:45:54.366Z,20.40
2018-08-09T05:48:22.713Z,20.50
2018-08-09T05:50:51.031Z,20.50
2018-08-09T05:53:19.456Z,20.60
2018-08-09T05:55:47.760Z,20.60
2018-08-09T05:58:16.103Z,20.70
2018-08-09T06:00:44.492Z,20.80
2018-08-09T06:03:12.880Z,20.90
2018-08-09T06:05:41.525Z,20.90
2018-08-09T06:08:09.856Z,21.00
2018-08-09T06:10:38.212Z,21.10
2018-08-09T06:13:06.589Z,21.20
2018-08-09T06:15:34.940Z,21.20
2018-08-09T06:18:03.362Z,21.30
2018-08-09T06:20:31.728Z,21.40
2018-08-09T06:23:00.819Z,21.50
2018-08-09T06:25:29.226Z,21.50
2018-08-09T06:27:57.552Z,21.60
2018-08-09T06:30:25.922Z,21.60
2018-08-09T06:32:54.263Z,21.70
2018-08-09T06:35:22.623Z,21.80
2018-08-09T06:37:51.007Z,21.80
2018-08-09T06:40:19.371Z,21.90
2018-08-09T06:42:47.691Z,22.00
2018-08-09T06:45:16.035Z,22.10
2018-08-09T06:47:44.462Z,22.10
2018-08-09T06:50:12.759Z,22.20
2018-08-09T06:52:41.105Z,22.20
2018-08-09T06:55:09.466Z,22.30
2018-08-09T06:57:37.840Z,22.40
2018-08-09T07:00:09.020Z,22.50
2018-08-09T07:02:37.353Z,22.60
2018-08-09T07:05:05.833Z,22.70
2018-08-09T07:07:34.184Z,22.80
2018-08-09T07:10:02.535Z,22.90
2018-08-09T07:12:31.295Z,22.90
2018-08-09T07:14:59.653Z,23.00
2018-08-09T07:17:27.983Z,23.10
2018-08-09T07:19:56.347Z,23.10
2018-08-09T07:22:24.670Z,23.20
2018-08-09T07:24:53.056Z,23.30
2018-08-09T07:27:21.395Z,23.40
2018-08-09T07:29:49.747Z,23.50
2018-08-09T07:32:18.088Z,23.60
2018-08-09T07:34:46.454Z,23.70
2018-08-09T07:37:14.783Z,23.80
2018-08-09T07:39:43.181Z,23.90
2018-08-09T07:42:11.527Z,24.00
2018-08-09T07:44:39.897Z,24.00
2018-08-09T07:47:08.465Z,24.10
2018-08-09T07:49:36.832Z,24.20
2018-08-09T07:52:05.216Z,24.40
2018-08-09T07:54:33.579Z,24.50
2018-08-09T07:57:01.919Z,24.60
2018-08-09T07:59:30.235Z,24.80
2018-08-09T08:01:58.583Z,24.90
2018-08-09T08:04:26.977Z,25.00
2018-08-09T08:06:55.343Z,25.00
2018-08-09T08:09:23.667Z,25.00
2018-08-09T08:11:52.011Z,25.00
2018-08-09T08:14:20.344Z,24.90
2018-08-09T08:16:48.708Z,24.90
2018-08-09T08:19:17.027Z,24.90
2018-08-09T08:21:45.397Z,24.80
2018-08-09T08:24:13.755Z,24.80
2018-08-09T08:26:42.134Z,24.80
2018-08-09T08:29:10.463Z,24.70
2018-08-09T08:31:38.830Z,24.70
2018-08-09T08:34:07.167Z,24.70
2018-08-09T08:36:35.522Z,24.80
2018-08-09T08:39:05.840Z,24.80
2018-08-09T08:41:34.246Z,24.80
2018-08-09T08:44:02.582Z,24.80
2018-08-09T08:46:30.979Z,24.70
2018-08-09T08:48:59.547Z,24.70
2018-08-09T08:51:27.891Z,24.70
2018-08-09T08:53:56.240Z,24.70
2018-08-09T08:56:24.668Z,24.70
2018-08-09T08:58:53.184Z,24.70
2018-08-09T09:01:21.550Z,24.60
2018-08-09T09:03:50.036Z,24.60
2018-08-09T09:06:18.447Z,24.50
2018-08-09T09:08:46.772Z,24.40
2018-08-09T09:11:15.126Z,24.40
2018-08-09T09:13:43.475Z,24.30
2018-08-09T09:16:11.823Z,24.20
2018-08-09T09:18:40.199Z,24.20
2018-08-09T09:21:08.711Z,24.10
2018-08-09T09:23:37.099Z,24.10
2018-08-09T09:26:05.500Z,24.00
2018-08-09T09:28:33.831Z,23.90
2018-08-09T09:31:02.199Z,23.90
2018-08-09T09:33:30.610Z,23.80
2018-08-09T09:35:58.991Z,23.70
2018-08-09T09:38:27.321Z,23.70
2018-08-09T09:40:55.695Z,23.70
2018-08-09T09:43:24.036Z,23.60
2018-08-09T09:45:52.399Z,23.60
2018-08-09T09:48:20.760Z,23.60
2018-08-09T09:50:49.084Z,23.60
2018-08-09T09:53:17.440Z,23.70
2018-08-09T09:55:45.773Z,23.70
2018-08-09T09:58:14.124Z,23.90
2018-08-09T10:00:47.719Z,24.00
2018-08-09T10:03:16.084Z,24.10
2018-08-09T10:05:44.414Z,24.40
2018-08-09T10:08:12.781Z,24.60
2018-08-09T10:10:41.136Z,24.80
2018-08-09T10:13:09.505Z,25.00
2018-08-09T10:15:37.852Z,25.20
2018-08-09T10:18:06.239Z,25.30
2018-08-09T10:20:34.692Z,25.40
2018-08-09T10:23:03.270Z,25.50
2018-08-09T10:25:32.073Z,25.70
2018-08-09T10:28:02.977Z,25.90
2018-08-09T10:30:31.398Z,26.00
2018-08-09T10:33:00.124Z,26.20
2018-08-09T10:35:28.453Z,26.30
2018-08-09T10:37:56.824Z,26.30
2018-08-09T10:40:26.824Z,26.50
2018-08-09T10:42:55.560Z,26.60
2018-08-09T10:45:23.885Z,26.60
2018-08-09T10:47:52.431Z,26.80
2018-08-09T10:50:22.899Z,26.90
2018-08-09T10:52:53.740Z,26.90
2018-08-09T10:55:22.186Z,26.90
2018-08-09T10:57:50.563Z,27.00
2018-08-09T11:00:18.912Z,27.10
2018-08-09T11:02:47.275Z,27.10
2018-08-09T11:05:15.622Z,27.20
2018-08-09T11:07:43.975Z,27.30
2018-08-09T11:10:12.315Z,27.50
2018-08-09T11:12:40.674Z,27.70
2018-08-09T11:15:10.598Z,27.90
2018-08-09T11:17:39.051Z,28.10
2018-08-09T11:20:07.431Z,28.30
2018-08-09T11:22:36.024Z,28.50
2018-08-09T11:25:04.884Z,28.70
2018-08-09T11:27:33.215Z,28.60
2018-08-09T11:30:01.572Z,28.50
2018-08-09T11:32:29.916Z,28.50
2018-08-09T11:34:58.271Z,28.80
2018-08-09T11:37:26.675Z,29.00
2018-08-09T11:39:55.041Z,29.30
2018-08-09T11:42:23.379Z,29.50
2018-08-09T11:44:51.744Z,29.70
2018-08-09T11:47:20.523Z,29.90
2018-08-09T11:49:48.937Z,30.00
2018-08-09T11:52:17.303Z,30.10
2018-08-09T11:54:45.766Z,30.10
2018-08-09T11:57:14.122Z,30.00
2018-08-09T11:59:42.487Z,29.80
2018-08-09T12:02:10.996Z,29.80
2018-08-09T12:04:39.521Z,29.80
2018-08-09T12:07:08.200Z,29.80
2018-08-09T12:09:36.642Z,29.90
2018-08-09T12:12:04.999Z,30.20
2018-08-09T12:14:33.350Z,30.50
2018-08-09T12:17:01.676Z,30.90
2018-08-09T12:19:30.080Z,31.20
2018-08-09T12:21:58.422Z,31.50
2018-08-09T12:24:26.879Z,31.70
2018-08-09T12:26:55.223Z,31.90
2018-08-09T12:29:23.622Z,31.90
2018-08-09T12:31:52.076Z,32.00
2018-08-09T12:34:20.585Z,31.90
2018-08-09T12:36:49.012Z,32.00
2018-08-09T12:39:17.388Z,32.10
2018-08-09T12:41:45.761Z,32.10
2018-08-09T12:44:14.126Z,32.20
2018-08-09T12:46:42.469Z,32.20
2018-08-09T12:49:10.847Z,32.40
2018-08-09T12:51:39.208Z,32.60
2018-08-09T12:54:07.601Z,32.90
2018-08-09T12:56:35.919Z,33.20
2018-08-09T12:59:04.399Z,33.40
2018-08-09T13:01:32.787Z,33.50
2018-08-09T13:04:01.188Z,33.70
2018-08-09T13:06:29.559Z,33.90
2018-08-09T13:08:57.903Z,34.00
2018-08-09T13:11:26.320Z,34.30
2018-08-09T13:13:54.665Z,34.30
2018-08-09T13:16:23.045Z,34.20
2018-08-09T13:18:51.423Z,34.10
2018-08-09T13:21:19.847Z,34.20
2018-08-09T13:23:48.219Z,34.30
2018-08-09T13:26:16.602Z,34.50
2018-08-09T13:28:44.947Z,34.70
2018-08-09T13:31:13.310Z,34.80
2018-08-09T13:33:41.686Z,34.80
2018-08-09T13:36:10.016Z,34.80
2018-08-09T13:38:38.364Z,34.90
2018-08-09T13:41:06.746Z,35.00
2018-08-09T13:43:35.215Z,35.10
2018-08-09T13:46:03.626Z,35.20
2018-08-09T13:48:32.005Z,35.50
2018-08-09T13:51:00.397Z,35.70
2018-08-09T13:53:28.743Z,35.80
2018-08-09T13:55:57.108Z,35.60
2018-08-09T13:58:25.560Z,35.40
2018-08-09T14:00:53.901Z,35.10
2018-08-09T14:03:22.243Z,35.00
2018-08-09T14:05:50.642Z,34.90
2018-08-09T14:08:18.996Z,34.80
2018-08-09T14:10:47.417Z,34.90
2018-08-09T14:13:15.727Z,35.00
2018-08-09T14:15:44.123Z,35.00
2018-08-09T14:18:12.483Z,35.10
2018-08-09T14:20:40.911Z,35.20
2018-08-09T14:23:09.272Z,35.30
2018-08-09T14:25:37.635Z,35.40
2018-08-09T14:28:05.983Z,35.50
2018-08-09T14:30:34.369Z,35.50
2018-08-09T14:33:02.761Z,35.50
2018-08-09T14:35:31.136Z,35.50
2018-08-09T14:37:59.484Z,35.30
2018-08-09T14:40:27.834Z,35.10
2018-08-09T14:42:56.226Z,35.00
2018-08-09T14:45:24.563Z,34.90
2018-08-09T14:47:52.975Z,34.80
2018-08-09T14:50:21.344Z,34.60
2018-08-09T14:52:49.719Z,34.50
2018-08-09T14:55:18.082Z,34.50
2018-08-09T14:57:46.444Z,34.40
2018-08-09T15:00:19.055Z,34.30
2018-08-09T15:02:47.872Z,34.20
2018-08-09T15:05:16.743Z,34.10
2018-08-09T15:07:45.156Z,33.90
2018-08-09T15:10:14.357Z,33.70
2018-08-09T15:12:42.807Z,33.40
2018-08-09T15:15:11.895Z,33.20
2018-08-09T15:17:40.340Z,33.10
2018-08-09T15:20:10.700Z,33.00
2018-08-09T15:22:39.579Z,32.80
2018-08-09T15:25:08.947Z,32.60
2018-08-09T15:27:37.379Z,32.50
2018-08-09T15:30:15.660Z,32.40
2018-08-09T15:32:44.343Z,32.30
2018-08-09T15:35:13.107Z,32.20
2018-08-09T15:37:41.516Z,32.10
2018-08-09T15:40:11.648Z,32.00
2018-08-09T15:42:40.320Z,31.70
2018-08-09T15:45:11.415Z,30.10
2018-08-09T15:47:40.408Z,28.50
2018-08-09T15:50:12.701Z,27.00
2018-08-09T15:52:41.271Z,25.90
2018-08-09T15:55:10.425Z,25.10
2018-08-09T15:57:40.283Z,24.70
2018-08-09T16:00:12.332Z,24.50
2018-08-09T16:02:40.769Z,24.60
2018-08-09T16:05:09.751Z,24.60
2018-08-09T16:07:38.248Z,24.70
2018-08-09T16:10:09.216Z,24.90
2018-08-09T16:12:37.939Z,24.90
2018-08-09T16:15:07.075Z,24.90
2018-08-09T16:17:35.711Z,24.90
2018-08-09T16:20:05.143Z,24.80
2018-08-09T16:22:33.575Z,24.70
2018-08-09T16:25:01.980Z,24.60
2018-08-09T16:27:30.347Z,24.60
2018-08-09T16:29:58.737Z,24.60
2018-08-09T16:32:27.080Z,24.60
2018-08-09T16:34:55.423Z,24.70
2018-08-09T16:37:23.813Z,24.70
2018-08-09T16:39:52.144Z,24.80
2018-08-09T16:42:20.512Z,24.80
2018-08-09T16:44:48.867Z,24.80
2018-08-09T16:47:17.186Z,24.80
2018-08-09T16:49:45.568Z,24.70
2018-08-09T16:52:13.944Z,24.70
2018-08-09T16:54:42.312Z,24.70
2018-08-09T16:57:10.689Z,24.70
2018-08-09T16:59:39.039Z,24.90
2018-08-09T17:02:07.372Z,25.00
2018-08-09T17:04:35.719Z,25.10
2018-08-09T17:07:04.083Z,25.00
2018-08-09T17:09:32.444Z,25.10
2018-08-09T17:12:00.795Z,25.10
2018-08-09T17:14:29.151Z,25.10
2018-08-09T17:16:57.496Z,25.00
2018-08-09T17:19:25.846Z,25.00
2018-08-09T17:21:54.183Z,25.10
2018-08-09T17:24:22.579Z,25.10
2018-08-09T17:26:50.919Z,25.00
2018-08-09T17:29:19.263Z,25.00
2018-08-09T17:31:47.575Z,25.10
2018-08-09T17:34:15.926Z,25.20
2018-08-09T17:36:44.259Z,25.30
2018-08-09T17:39:12.982Z,25.30
2018-08-09T17:41:41.322Z,25.30
2018-08-09T17:44:10.977Z,25.30
2018-08-09T17:46:39.296Z,25.10
2018-08-09T17:49:07.679Z,25.10
2018-08-09T17:51:36.088Z,25.10
2018-08-09T17:54:04.440Z,25.00
2018-08-09T17:56:32.812Z,24.90
2018-08-09T17:59:01.158Z,25.00
2018-08-09T18:01:29.507Z,25.00
2018-08-09T18:03:57.817Z,24.90
2018-08-09T18:06:26.199Z,24.90
2018-08-09T18:08:54.536Z,24.90
2018-08-09T18:11:22.915Z,24.80
2018-08-09T18:13:51.256Z,24.60
2018-08-09T18:16:19.611Z,24.60
2018-08-09T18:18:47.958Z,24.60
2018-08-09T18:21:16.347Z,24.50
2018-08-09T18:23:44.716Z,24.40
2018-08-09T18:26:13.148Z,24.40
2018-08-09T18:28:41.520Z,24.40
2018-08-09T18:31:10.176Z,24.30
2018-08-09T18:33:41.728Z,24.20
2018-08-09T18:36:11.074Z,24.10
2018-08-09T18:38:39.809Z,24.10
2018-08-09T18:41:08.263Z,24.10
2018-08-09T18:43:36.715Z,24.00
2018-08-09T18:46:05.079Z,24.00
2018-08-09T18:48:33.412Z,23.90
2018-08-09T18:51:01.829Z,23.90
2018-08-09T18:53:30.259Z,23.80
2018-08-09T18:55:58.712Z,23.70
2018-08-09T18:58:27.296Z,23.60
2018-08-09T19:00:55.671Z,23.60
2018-08-09T19:03:24.011Z,23.50
2018-08-09T19:05:52.387Z,23.50
2018-08-09T19:08:20.738Z,23.50
2018-08-09T19:10:49.100Z,23.40
2018-08-09T19:13:17.457Z,23.40
2018-08-09T19:15:45.835Z,23.30
2018-08-09T19:18:14.160Z,23.30
2018-08-09T19:20:42.546Z,23.30
2018-08-09T19:23:10.946Z,23.30
2018-08-09T19:25:39.283Z,23.30
2018-08-09T19:28:07.696Z,23.20
2018-08-09T19:30:36.112Z,23.20
2018-08-09T19:33:04.518Z,23.20
2018-08-09T19:35:32.905Z,23.20
2018-08-09T19:38:01.282Z,23.20
2018-08-09T19:40:30.277Z,23.20
2018-08-09T19:42:58.689Z,23.20
2018-08-09T19:46:04.480Z,23.10
2018-08-09T19:48:32.945Z,23.10
2018-08-09T19:51:01.316Z,23.10
2018-08-09T19:53:29.678Z,23.10
2018-08-09T19:55:58.016Z,23.10
2018-08-09T19:58:26.390Z,23.10
2018-08-09T20:00:54.747Z,23.10
2018-08-09T20:03:23.128Z,23.20
2018-08-09T20:05:51.532Z,23.20
2018-08-09T20:08:19.931Z,23.20
2018-08-09T20:10:48.282Z,23.20
2018-08-09T20:13:17.247Z,23.20
2018-08-09T20:15:45.640Z,23.30
2018-08-09T20:18:14.043Z,23.20
2018-08-09T20:20:42.469Z,23.30
2018-08-09T20:23:10.919Z,23.30
2018-08-09T20:25:39.304Z,23.20
2018-08-09T20:28:07.701Z,23.20
2018-08-09T20:30:36.031Z,23.20
2018-08-09T20:33:04.475Z,23.20
2018-08-09T20:35:32.833Z,23.20
2018-08-09T20:38:01.208Z,23.20
2018-08-09T20:40:29.552Z,23.20
2018-08-09T20:42:57.989Z,23.20
2018-08-09T20:45:26.400Z,23.10
2018-08-09T20:47:54.827Z,23.10
2018-08-09T20:50:25.137Z,23.10
2018-08-09T20:52:53.520Z,23.10
2018-08-09T20:55:21.891Z,23.10
2018-08-09T20:57:51.004Z,23.10
2018-08-09T21:00:22.224Z,23.00
2018-08-09T21:02:51.862Z,23.00
2018-08-09T21:05:23.596Z,23.00
2018-08-09T21:07:53.124Z,23.00
2018-08-09T21:10:21.796Z,22.90
2018-08-09T21:12:50.212Z,22.80
2018-08-09T21:15:19.434Z,22.70
2018-08-09T21:17:47.787Z,22.60
2018-08-09T21:20:16.276Z,22.50
2018-08-09T21:22:45.955Z,22.40
2018-08-09T21:25:14.444Z,22.30
2018-08-09T21:27:43.130Z,22.20
2018-08-09T21:30:14.027Z,22.10
2018-08-09T21:32:42.595Z,22.10
2018-08-09T21:35:11.212Z,22.00
2018-08-09T21:37:40.660Z,22.00
2018-08-09T21:40:10.247Z,21.90
2018-08-09T21:42:38.606Z,21.90
2018-08-09T21:45:11.010Z,21.80
2018-08-09T21:47:39.372Z,21.80
2018-08-09T21:50:13.188Z,21.70
2018-08-09T21:52:41.892Z,21.70
2018-08-09T21:55:11.157Z,21.60
2018-08-09T21:57:39.567Z,21.60
2018-08-09T22:00:15.164Z,21.60
2018-08-09T22:02:43.544Z,21.50
2018-08-09T22:05:17.169Z,21.50
2018-08-09T22:07:50.828Z,21.40
2018-08-09T22:10:24.784Z,21.40
2018-08-09T22:12:58.447Z,21.40
2018-08-09T22:15:32.241Z,21.30
2018-08-09T22:18:05.944Z,21.30
2018-08-09T22:20:39.825Z,21.30
2018-08-09T22:23:08.234Z,21.20
2018-08-09T22:25:36.596Z,21.20
2018-08-09T22:28:04.971Z,21.30
2018-08-09T22:30:33.391Z,21.30
2018-08-09T22:33:01.768Z,21.20
2018-08-09T22:35:30.169Z,21.20
2018-08-09T22:37:58.522Z,21.20
2018-08-09T22:40:26.916Z,21.20
2018-08-09T22:42:55.297Z,21.20
2018-08-09T22:45:23.667Z,21.20
2018-08-09T22:47:52.039Z,21.20
2018-08-09T22:50:24.401Z,21.20
2018-08-09T22:52:52.823Z,21.10
2018-08-09T22:55:21.228Z,21.10
2018-08-09T22:57:49.598Z,21.10
2018-08-09T23:00:21.477Z,21.10
2018-08-09T23:02:50.031Z,21.10
2018-08-09T23:05:18.597Z,21.10
2018-08-09T23:07:46.950Z,21.00
2018-08-09T23:10:15.435Z,21.00
2018-08-09T23:12:44.172Z,21.00
2018-08-09T23:15:12.691Z,20.90
2018-08-09T23:17:41.031Z,20.90
2018-08-09T23:20:09.963Z,20.80
2018-08-09T23:22:38.348Z,20.80
2018-08-09T23:25:10.544Z,20.80
2018-08-09T23:27:38.902Z,20.80
2018-08-09T23:30:08.446Z,20.70
2018-08-09T23:32:36.944Z,20.70
2018-08-09T23:35:06.795Z,20.70
2018-08-09T23:37:35.239Z,20.70
2018-08-09T23:40:03.965Z,20.60
2018-08-09T23:42:32.422Z,20.60
2018-08-09T23:45:00.747Z,20.60
2018-08-09T23:47:29.136Z,20.50
2018-08-09T23:49:57.486Z,20.50
2018-08-09T23:52:25.872Z,20.40
2018-08-09T23:54:54.321Z,20.40
2018-08-09T23:57:22.720Z,20.40
2018-08-09T23:59:51.098Z,20.40
